createdAt,value
2018-08-04T00:01:59.796Z,97.60
2018-08-04T00:04:29.875Z,97.60
2018-08-04T00:06:59.380Z,98.00
2018-08-04T00:09:28.879Z,97.80
2018-08-04T00:11:58.472Z,98.20
2018-08-04T00:14:27.935Z,98.50
2018-08-04T00:16:57.435Z,98.40
2018-08-04T00:19:26.976Z,98.20
2018-08-04T00:21:56.510Z,98.20
2018-08-04T00:24:26.061Z,98.30
2018-08-04T00:26:55.564Z,98.10
2018-08-04T00:29:25.042Z,98.20
2018-08-04T00:34:23.562Z,98.50
2018-08-04T00:36:53.052Z,98.40
2018-08-04T00:41:51.595Z,98.70
2018-08-04T00:44:21.118Z,98.80
2018-08-04T00:46:50.640Z,98.70
2018-08-04T00:49:20.152Z,99.10
2018-08-04T00:51:49.716Z,99.50
2018-08-04T00:54:19.298Z,99.90
2018-08-04T00:56:48.827Z,99.90
2018-08-04T00:59:18.297Z,99.90
2018-08-04T01:01:47.773Z,99.90
2018-08-04T01:04:17.288Z,99.90
2018-08-04T01:06:46.871Z,99.90
2018-08-04T01:09:16.363Z,99.90
2018-08-04T01:11:45.880Z,99.90
2018-08-04T01:14:15.389Z,99.90
2018-08-04T01:16:44.894Z,99.90
2018-08-04T01:19:14.408Z,99.90
2018-08-04T01:21:43.876Z,99.90
2018-08-04T01:24:13.443Z,99.90
2018-08-04T01:26:42.946Z,99.90
2018-08-04T01:29:12.804Z,99.90
2018-08-04T01:31:42.292Z,99.90
2018-08-04T01:34:11.996Z,99.90
2018-08-04T01:36:41.536Z,99.90
2018-08-04T01:39:11.783Z,99.90
2018-08-04T01:41:41.339Z,99.90
2018-08-04T01:44:10.899Z,99.90
2018-08-04T01:46:40.404Z,99.90
2018-08-04T01:49:09.901Z,99.90
2018-08-04T01:51:39.429Z,99.90
2018-08-04T01:54:08.945Z,99.90
2018-08-04T01:56:38.477Z,99.90
2018-08-04T01:59:08.046Z,99.90
2018-08-04T02:01:37.559Z,99.90
2018-08-04T02:04:07.094Z,99.90
2018-08-04T02:06:36.619Z,99.90
2018-08-04T02:14:05.247Z,99.90
2018-08-04T02:16:34.825Z,99.90
2018-08-04T02:19:04.363Z,99.90
2018-08-04T02:21:33.895Z,99.90
2018-08-04T02:24:03.382Z,99.90
2018-08-04T02:26:32.912Z,99.90
2018-08-04T02:29:02.424Z,99.90
2018-08-04T02:31:31.907Z,99.90
2018-08-04T02:34:01.498Z,99.90
2018-08-04T02:36:31.034Z,99.90
2018-08-04T02:39:00.539Z,99.90
2018-08-04T02:41:30.031Z,99.90
2018-08-04T02:43:59.576Z,99.90
2018-08-04T02:46:29.109Z,99.90
2018-08-04T02:48:58.649Z,99.90
2018-08-04T02:51:28.160Z,99.90
2018-08-04T02:53:57.657Z,99.90
2018-08-04T02:56:27.182Z,99.90
2018-08-04T02:58:56.689Z,99.90
2018-08-04T03:01:26.360Z,99.90
2018-08-04T03:03:55.861Z,99.90
2018-08-04T03:06:25.462Z,99.90
2018-08-04T03:08:54.952Z,99.90
2018-08-04T03:11:24.493Z,99.90
2018-08-04T03:13:54.005Z,99.90
2018-08-04T03:16:23.534Z,99.90
2018-08-04T03:18:53.093Z,99.90
2018-08-04T03:21:22.565Z,99.90
2018-08-04T03:23:52.596Z,99.90
2018-08-04T03:26:22.149Z,99.90
2018-08-04T03:28:51.700Z,99.90
2018-08-04T03:31:21.261Z,99.90
2018-08-04T03:33:50.827Z,99.90
2018-08-04T03:36:20.317Z,99.90
2018-08-04T03:38:49.812Z,99.90
2018-08-04T03:41:19.336Z,99.90
2018-08-04T03:43:48.827Z,99.90
2018-08-04T03:46:18.313Z,99.90
2018-08-04T03:51:16.805Z,99.90
2018-08-04T03:53:46.272Z,99.90
2018-08-04T03:56:17.192Z,99.90
2018-08-04T03:58:47.725Z,99.90
2018-08-04T04:01:17.306Z,99.90
2018-08-04T04:03:46.769Z,99.90
2018-08-04T04:06:16.263Z,99.90
2018-08-04T04:08:45.792Z,99.90
2018-08-04T04:13:44.304Z,99.90
2018-08-04T04:16:13.886Z,99.90
2018-08-04T04:18:43.412Z,99.90
2018-08-04T04:21:12.957Z,99.90
2018-08-04T04:23:42.474Z,99.90
2018-08-04T04:26:12.005Z,99.90
2018-08-04T04:28:41.598Z,99.90
2018-08-04T04:31:11.089Z,99.90
2018-08-04T04:33:40.586Z,99.90
2018-08-04T04:36:10.127Z,99.90
2018-08-04T04:38:39.640Z,99.90
2018-08-04T04:41:09.236Z,99.90
2018-08-04T04:43:38.692Z,99.90
2018-08-04T04:46:08.266Z,99.90
2018-08-04T04:48:37.762Z,99.90
2018-08-04T04:51:07.708Z,99.90
2018-08-04T04:53:37.193Z,99.90
2018-08-04T04:56:06.765Z,99.90
2018-08-04T04:58:36.251Z,99.90
2018-08-04T05:01:05.945Z,99.90
2018-08-04T05:03:35.468Z,99.90
2018-08-04T05:06:05.791Z,99.90
2018-08-04T05:08:35.327Z,99.90
2018-08-04T05:13:33.800Z,99.90
2018-08-04T05:16:03.302Z,99.90
2018-08-04T05:18:32.824Z,99.90
2018-08-04T05:21:02.358Z,99.90
2018-08-04T05:23:31.906Z,99.90
2018-08-04T05:26:01.403Z,99.90
2018-08-04T05:28:30.947Z,99.90
2018-08-04T05:31:00.533Z,99.90
2018-08-04T05:33:30.012Z,99.90
2018-08-04T05:35:59.558Z,99.90
2018-08-04T05:38:29.091Z,99.90
2018-08-04T05:40:58.626Z,99.90
2018-08-04T05:43:28.136Z,99.90
2018-08-04T05:45:57.633Z,99.90
2018-08-04T05:48:27.132Z,99.90
2018-08-04T05:50:56.636Z,99.90
2018-08-04T05:53:26.137Z,99.90
2018-08-04T05:55:55.724Z,99.90
2018-08-04T05:58:25.232Z,99.90
2018-08-04T06:00:54.753Z,99.90
2018-08-04T06:03:24.323Z,99.90
2018-08-04T06:05:54.136Z,99.90
2018-08-04T06:08:23.621Z,99.90
2018-08-04T06:10:53.196Z,99.90
2018-08-04T06:13:22.703Z,99.90
2018-08-04T06:15:52.178Z,99.90
2018-08-04T06:18:22.048Z,99.90
2018-08-04T06:20:51.858Z,99.90
2018-08-04T06:23:21.384Z,99.90
2018-08-04T06:25:50.949Z,99.90
2018-08-04T06:28:20.517Z,99.90
2018-08-04T06:30:50.056Z,99.90
2018-08-04T06:33:19.566Z,99.90
2018-08-04T06:35:49.061Z,99.90
2018-08-04T06:38:18.537Z,99.90
2018-08-04T06:40:48.106Z,99.90
2018-08-04T06:43:17.654Z,99.90
2018-08-04T06:45:47.536Z,99.90
2018-08-04T06:48:17.078Z,99.90
2018-08-04T06:50:46.599Z,99.90
2018-08-04T06:53:16.110Z,99.90
2018-08-04T06:55:45.674Z,99.90
2018-08-04T06:58:15.244Z,99.90
2018-08-04T07:00:44.734Z,99.90
2018-08-04T07:03:14.278Z,99.90
2018-08-04T07:05:43.811Z,99.90
2018-08-04T07:08:13.314Z,99.90
2018-08-04T07:10:46.502Z,99.90
2018-08-04T07:13:20.607Z,99.90
2018-08-04T07:15:54.381Z,99.90
2018-08-04T07:18:27.267Z,99.90
2018-08-04T07:21:00.505Z,99.90
2018-08-04T07:23:30.025Z,99.90
2018-08-04T07:25:59.571Z,99.90
2018-08-04T07:28:29.084Z,99.90
2018-08-04T07:30:58.660Z,99.90
2018-08-04T07:33:28.184Z,99.90
2018-08-04T07:35:57.668Z,99.90
2018-08-04T07:38:27.205Z,99.90
2018-08-04T07:40:57.147Z,99.90
2018-08-04T07:43:26.697Z,99.90
2018-08-04T07:45:56.245Z,99.90
2018-08-04T07:48:25.771Z,99.90
2018-08-04T07:50:55.277Z,99.90
2018-08-04T07:53:24.815Z,99.90
2018-08-04T07:55:54.363Z,99.90
2018-08-04T07:58:23.941Z,99.90
2018-08-04T08:00:53.460Z,99.90
2018-08-04T08:03:22.965Z,99.90
2018-08-04T08:05:52.476Z,99.90
2018-08-04T08:08:22.040Z,99.90
2018-08-04T08:10:51.671Z,99.90
2018-08-04T08:13:21.130Z,99.90
2018-08-04T08:15:50.661Z,99.90
2018-08-04T08:18:21.282Z,99.90
2018-08-04T08:20:55.723Z,99.90
2018-08-04T08:23:30.705Z,99.90
2018-08-04T08:26:06.463Z,99.90
2018-08-04T08:28:40.595Z,99.90
2018-08-04T08:31:13.946Z,99.90
2018-08-04T08:33:48.452Z,99.90
2018-08-04T08:36:20.598Z,99.90
2018-08-04T08:38:55.628Z,99.90
2018-08-04T08:41:29.221Z,98.80
2018-08-04T08:43:58.809Z,98.20
2018-08-04T08:46:28.360Z,97.30
2018-08-04T08:49:02.302Z,97.20
2018-08-04T08:51:31.807Z,96.60
2018-08-04T08:54:01.435Z,96.70
2018-08-04T08:56:30.830Z,95.70
2018-08-04T08:59:00.325Z,95.40
2018-08-04T09:01:29.852Z,95.20
2018-08-04T09:03:59.358Z,94.50
2018-08-04T09:06:28.885Z,93.60
2018-08-04T09:08:58.559Z,93.60
2018-08-04T09:11:28.107Z,93.70
2018-08-04T09:13:57.598Z,94.10
2018-08-04T09:16:27.119Z,93.80
2018-08-04T09:18:56.664Z,93.00
2018-08-04T09:21:26.173Z,92.80
2018-08-04T09:23:55.837Z,91.60
2018-08-04T09:26:25.378Z,91.00
2018-08-04T09:28:54.946Z,91.20
2018-08-04T09:31:24.424Z,91.40
2018-08-04T09:33:53.935Z,90.30
2018-08-04T09:36:23.462Z,90.00
2018-08-04T09:38:58.278Z,90.00
2018-08-04T09:41:27.862Z,90.70
2018-08-04T09:43:57.436Z,88.60
2018-08-04T09:46:27.012Z,87.80
2018-08-04T09:48:56.731Z,88.10
2018-08-04T09:51:26.271Z,88.20
2018-08-04T09:53:55.993Z,86.80
2018-08-04T09:56:26.390Z,86.60
2018-08-04T09:58:55.955Z,87.00
2018-08-04T10:01:30.720Z,83.40
2018-08-04T10:04:00.265Z,82.40
2018-08-04T10:06:29.760Z,84.00
2018-08-04T10:08:59.328Z,84.30
2018-08-04T10:11:28.849Z,81.60
2018-08-04T10:16:28.667Z,80.90
2018-08-04T10:18:58.209Z,78.80
2018-08-04T10:21:27.770Z,79.20
2018-08-04T10:23:57.621Z,79.40
2018-08-04T10:26:27.174Z,76.80
2018-08-04T10:28:56.813Z,78.00
2018-08-04T10:31:26.959Z,77.00
2018-08-04T10:33:56.437Z,77.50
2018-08-04T10:36:26.031Z,74.00
2018-08-04T10:38:55.552Z,74.60
2018-08-04T10:41:25.119Z,72.90
2018-08-04T10:43:54.737Z,72.30
2018-08-04T10:46:24.298Z,72.90
2018-08-04T10:48:53.789Z,71.70
2018-08-04T10:51:23.300Z,71.60
2018-08-04T10:53:52.865Z,70.50
2018-08-04T10:56:22.852Z,70.20
2018-08-04T10:58:52.330Z,70.70
2018-08-04T11:01:24.858Z,71.10
2018-08-04T11:03:58.404Z,70.60
2018-08-04T11:06:28.044Z,69.20
2018-08-04T11:08:57.563Z,68.90
2018-08-04T11:11:30.361Z,68.40
2018-08-04T11:13:59.888Z,69.10
2018-08-04T11:16:29.448Z,68.80
2018-08-04T11:18:58.991Z,68.90
2018-08-04T11:21:28.544Z,67.00
2018-08-04T11:23:58.070Z,66.90
2018-08-04T11:26:27.659Z,67.50
2018-08-04T11:28:57.140Z,67.20
2018-08-04T11:31:26.635Z,68.50
2018-08-04T11:33:56.206Z,70.80
2018-08-04T11:36:25.894Z,69.70
2018-08-04T11:38:55.446Z,69.00
2018-08-04T11:41:24.915Z,71.30
2018-08-04T11:43:54.405Z,69.30
2018-08-04T11:46:25.230Z,68.40
2018-08-04T11:49:01.840Z,68.10
2018-08-04T11:51:35.548Z,66.80
2018-08-04T11:54:08.892Z,67.20
2018-08-04T11:56:44.254Z,67.50
2018-08-04T11:59:16.930Z,67.80
2018-08-04T12:01:50.553Z,68.20
2018-08-04T12:04:21.108Z,66.50
2018-08-04T12:06:53.734Z,66.30
2018-08-04T12:09:29.981Z,66.80
2018-08-04T12:12:04.495Z,66.40
2018-08-04T12:14:38.373Z,67.70
2018-08-04T12:17:12.432Z,67.40
2018-08-04T12:19:41.947Z,68.10
2018-08-04T12:22:11.443Z,67.80
2018-08-04T12:24:40.938Z,68.40
2018-08-04T12:27:10.563Z,67.60
2018-08-04T12:29:40.079Z,67.00
2018-08-04T12:32:09.637Z,67.50
2018-08-04T12:34:39.166Z,68.10
2018-08-04T12:37:08.697Z,68.10
2018-08-04T12:39:38.213Z,66.10
2018-08-04T12:42:07.736Z,66.20
2018-08-04T12:44:37.297Z,66.70
2018-08-04T12:47:06.799Z,66.60
2018-08-04T12:49:36.307Z,65.60
2018-08-04T12:52:06.235Z,66.00
2018-08-04T12:54:35.750Z,66.50
2018-08-04T12:57:05.362Z,68.00
2018-08-04T12:59:34.852Z,67.80
2018-08-04T13:02:04.420Z,66.30
2018-08-04T13:04:33.896Z,66.20
2018-08-04T13:07:03.481Z,67.60
2018-08-04T13:09:32.981Z,68.20
2018-08-04T13:12:02.573Z,68.70
2018-08-04T13:14:32.055Z,69.00
2018-08-04T13:17:01.765Z,69.70
2018-08-04T13:19:31.314Z,68.90
2018-08-04T13:22:00.932Z,68.10
2018-08-04T13:24:30.515Z,69.40
2018-08-04T13:27:00.208Z,71.10
2018-08-04T13:29:29.708Z,69.70
2018-08-04T13:34:28.260Z,70.20
2018-08-04T13:36:57.826Z,70.80
2018-08-04T13:39:27.372Z,69.10
2018-08-04T13:41:56.944Z,68.90
2018-08-04T13:44:26.500Z,68.30
2018-08-04T13:46:56.047Z,70.20
2018-08-04T13:49:25.570Z,67.60
2018-08-04T13:51:55.112Z,68.00
2018-08-04T13:54:24.688Z,66.40
2018-08-04T13:56:54.255Z,67.50
2018-08-04T14:01:52.955Z,67.30
2018-08-04T14:04:22.880Z,66.30
2018-08-04T14:06:52.994Z,66.50
2018-08-04T14:09:22.509Z,67.00
2018-08-04T14:11:52.037Z,66.90
2018-08-04T14:14:21.553Z,66.00
2018-08-04T14:16:51.194Z,65.30
2018-08-04T14:19:20.748Z,64.80
2018-08-04T14:21:50.310Z,65.00
2018-08-04T14:24:19.887Z,63.70
2018-08-04T14:26:49.563Z,63.70
2018-08-04T14:29:19.036Z,62.40
2018-08-04T14:31:48.998Z,62.60
2018-08-04T14:34:18.557Z,63.20
2018-08-04T14:36:48.110Z,64.10
2018-08-04T14:39:17.642Z,63.30
2018-08-04T14:41:47.158Z,63.10
2018-08-04T14:44:16.698Z,64.00
2018-08-04T14:46:46.203Z,62.60
2018-08-04T14:49:15.757Z,64.20
2018-08-04T14:51:45.273Z,64.10
2018-08-04T14:54:14.858Z,63.50
2018-08-04T14:56:44.428Z,64.10
2018-08-04T14:59:13.928Z,62.90
2018-08-04T15:01:43.466Z,61.90
2018-08-04T15:04:13.200Z,62.30
2018-08-04T15:06:43.553Z,63.60
2018-08-04T15:09:13.795Z,63.10
2018-08-04T15:11:46.390Z,62.00
2018-08-04T15:16:45.211Z,63.30
2018-08-04T15:19:14.993Z,64.20
2018-08-04T15:21:47.887Z,64.80
2018-08-04T15:24:17.463Z,65.10
2018-08-04T15:26:47.055Z,65.50
2018-08-04T15:29:16.572Z,65.00
2018-08-04T15:31:46.144Z,65.00
2018-08-04T15:36:45.375Z,65.30
2018-08-04T15:39:14.904Z,65.30
2018-08-04T15:41:44.510Z,65.60
2018-08-04T15:44:14.223Z,65.50
2018-08-04T15:46:43.739Z,68.00
2018-08-04T15:49:13.248Z,66.50
2018-08-04T15:51:44.543Z,65.60
2018-08-04T15:54:14.487Z,66.60
2018-08-04T15:56:44.067Z,65.40
2018-08-04T15:59:13.899Z,65.30
2018-08-04T16:01:43.439Z,66.30
2018-08-04T16:04:13.183Z,67.30
2018-08-04T16:06:43.076Z,68.50
2018-08-04T16:09:12.825Z,67.90
2018-08-04T16:11:42.755Z,68.40
2018-08-04T16:14:12.332Z,67.30
2018-08-04T16:16:41.874Z,67.60
2018-08-04T16:19:11.366Z,68.70
2018-08-04T16:21:40.919Z,66.90
2018-08-04T16:24:10.433Z,68.30
2018-08-04T16:26:39.958Z,67.60
2018-08-04T16:29:09.661Z,68.10
2018-08-04T16:31:39.185Z,68.20
2018-08-04T16:34:08.718Z,67.40
2018-08-04T16:36:38.237Z,68.10
2018-08-04T16:39:09.408Z,68.60
2018-08-04T16:41:39.114Z,70.00
2018-08-04T16:44:08.624Z,70.10
2018-08-04T16:46:38.206Z,71.50
2018-08-04T16:49:07.777Z,70.00
2018-08-04T16:51:37.268Z,69.50
2018-08-04T16:54:06.924Z,69.80
2018-08-04T16:56:36.465Z,71.00
2018-08-04T16:59:06.427Z,71.80
2018-08-04T17:01:36.022Z,71.90
2018-08-04T17:04:05.790Z,73.30
2018-08-04T17:06:35.372Z,74.50
2018-08-04T17:09:08.255Z,75.40
2018-08-04T17:11:38.345Z,75.40
2018-08-04T17:14:08.281Z,76.00
2018-08-04T17:16:37.847Z,76.20
2018-08-04T17:19:07.377Z,76.60
2018-08-04T17:21:36.896Z,76.80
2018-08-04T17:24:06.429Z,76.70
2018-08-04T17:26:36.245Z,77.30
2018-08-04T17:29:05.832Z,77.80
2018-08-04T17:31:35.403Z,77.60
2018-08-04T17:34:04.967Z,79.10
2018-08-04T17:36:34.482Z,79.70
2018-08-04T17:39:05.415Z,80.20
2018-08-04T17:41:34.993Z,80.80
2018-08-04T17:44:04.537Z,80.90
2018-08-04T17:46:34.062Z,81.10
2018-08-04T17:49:03.951Z,81.20
2018-08-04T17:51:33.529Z,81.70
2018-08-04T17:54:03.088Z,82.00
2018-08-04T17:56:32.673Z,82.10
2018-08-04T17:59:02.198Z,82.50
2018-08-04T18:01:31.808Z,82.60
2018-08-04T18:04:01.394Z,83.20
2018-08-04T18:06:31.064Z,84.10
2018-08-04T18:09:00.676Z,84.80
2018-08-04T18:13:59.235Z,86.00
2018-08-04T18:16:28.723Z,86.60
2018-08-04T18:18:58.241Z,87.40
2018-08-04T18:21:27.780Z,87.80
2018-08-04T18:23:57.274Z,88.20
2018-08-04T18:26:26.761Z,88.60
2018-08-04T18:28:56.642Z,89.20
2018-08-04T18:31:26.233Z,89.70
2018-08-04T18:33:55.811Z,90.10
2018-08-04T18:36:25.495Z,90.40
2018-08-04T18:38:55.008Z,90.30
2018-08-04T18:41:24.602Z,90.30
2018-08-04T18:43:54.158Z,90.40
2018-08-04T18:46:24.313Z,90.60
2018-08-04T18:48:54.391Z,90.80
2018-08-04T18:51:23.951Z,90.90
2018-08-04T18:53:53.689Z,91.20
2018-08-04T18:56:23.715Z,91.50
2018-08-04T18:58:53.931Z,91.60
2018-08-04T19:01:24.331Z,91.80
2018-08-04T19:03:53.895Z,91.90
2018-08-04T19:06:23.394Z,92.40
2018-08-04T19:08:52.953Z,92.30
2018-08-04T19:11:22.519Z,92.40
2018-08-04T19:13:52.058Z,92.50
2018-08-04T19:16:21.695Z,92.80
2018-08-04T19:18:51.203Z,93.00
2018-08-04T19:21:20.794Z,93.00
2018-08-04T19:23:50.292Z,93.10
2018-08-04T19:26:19.838Z,93.40
2018-08-04T19:28:49.372Z,93.50
2018-08-04T19:31:18.961Z,93.60
2018-08-04T19:33:48.481Z,93.70
2018-08-04T19:36:18.015Z,93.50
2018-08-04T19:38:47.596Z,93.70
2018-08-04T19:41:17.146Z,93.90
2018-08-04T19:43:46.729Z,94.00
2018-08-04T19:46:16.256Z,94.20
2018-08-04T19:48:45.864Z,94.40
2018-08-04T19:51:15.384Z,94.60
2018-08-04T19:53:44.924Z,94.80
2018-08-04T19:56:14.444Z,94.90
2018-08-04T19:58:44.037Z,95.00
2018-08-04T20:01:13.513Z,95.10
2018-08-04T20:03:43.055Z,95.20
2018-08-04T20:06:12.617Z,95.30
2018-08-04T20:08:42.127Z,95.40
2018-08-04T20:11:11.644Z,95.50
2018-08-04T20:13:41.145Z,95.70
2018-08-04T20:16:10.690Z,96.00
2018-08-04T20:18:40.297Z,96.10
2018-08-04T20:21:09.870Z,96.50
2018-08-04T20:23:39.388Z,96.70
2018-08-04T20:26:08.938Z,96.80
2018-08-04T20:28:38.534Z,97.00
2018-08-04T20:31:08.095Z,97.10
2018-08-04T20:33:37.665Z,97.40
2018-08-04T20:36:07.236Z,97.50
2018-08-04T20:41:06.198Z,97.70
2018-08-04T20:43:35.714Z,98.00
2018-08-04T20:46:05.421Z,98.30
2018-08-04T20:48:34.966Z,98.40
2018-08-04T20:53:33.709Z,98.70
2018-08-04T20:56:03.250Z,98.90
2018-08-04T20:58:32.804Z,99.10
2018-08-04T21:01:13.260Z,99.30
2018-08-04T21:03:42.775Z,99.60
2018-08-04T21:06:12.381Z,99.80
2018-08-04T21:08:41.933Z,99.90
2018-08-04T21:11:11.480Z,99.90
2018-08-04T21:13:41.091Z,99.90
2018-08-04T21:16:10.618Z,99.90
2018-08-04T21:18:40.627Z,99.90
2018-08-04T21:21:10.229Z,99.90
2018-08-04T21:23:39.927Z,99.90
2018-08-04T21:26:09.575Z,99.90
2018-08-04T21:28:39.150Z,99.90
2018-08-04T21:31:08.687Z,99.90
2018-08-04T21:33:38.207Z,99.90
2018-08-04T21:36:07.741Z,99.90
2018-08-04T21:38:37.310Z,99.90
2018-08-04T21:41:07.596Z,99.90
2018-08-04T21:43:37.129Z,99.90
2018-08-04T21:46:06.719Z,99.90
2018-08-04T21:48:44.469Z,99.90
2018-08-04T21:51:14.225Z,99.90
2018-08-04T21:53:43.848Z,99.90
2018-08-04T21:56:13.397Z,99.90
2018-08-04T21:58:42.978Z,99.90
2018-08-04T22:01:13.239Z,99.90
2018-08-04T22:03:44.157Z,99.90
2018-08-04T22:06:14.214Z,99.90
2018-08-04T22:08:55.178Z,99.90
2018-08-04T22:11:24.694Z,99.90
2018-08-04T22:13:54.241Z,99.90
2018-08-04T22:18:52.852Z,99.90
2018-08-04T22:23:51.461Z,99.90
2018-08-04T22:26:21.047Z,99.90
2018-08-04T22:31:19.836Z,99.90
2018-08-04T22:33:49.386Z,99.90
2018-08-04T22:36:18.918Z,99.90
2018-08-04T22:38:48.473Z,99.90
2018-08-04T22:41:17.980Z,99.90
2018-08-04T22:43:47.531Z,99.90
2018-08-04T22:46:17.763Z,99.90
2018-08-04T22:48:48.551Z,99.90
2018-08-04T22:51:23.264Z,99.90
2018-08-04T22:53:52.875Z,99.90
2018-08-04T22:56:22.492Z,99.90
2018-08-04T22:58:53.075Z,99.90
2018-08-04T23:01:22.769Z,99.90
2018-08-04T23:03:52.289Z,99.90
2018-08-04T23:06:22.142Z,99.90
2018-08-04T23:08:52.777Z,99.90
2018-08-04T23:11:22.727Z,99.90
2018-08-04T23:13:52.301Z,99.90
2018-08-04T23:16:22.965Z,99.90
2018-08-04T23:18:53.938Z,99.90
2018-08-04T23:21:23.533Z,99.90
2018-08-04T23:23:53.078Z,99.90
2018-08-04T23:26:22.623Z,99.90
2018-08-04T23:28:52.712Z,99.90
2018-08-04T23:31:22.305Z,99.90
2018-08-04T23:33:51.856Z,99.90
2018-08-04T23:36:21.378Z,99.90
2018-08-04T23:38:50.891Z,99.90
2018-08-04T23:41:20.415Z,99.90
2018-08-04T23:43:49.908Z,99.90
2018-08-04T23:48:48.442Z,99.90
2018-08-04T23:51:17.935Z,99.90
2018-08-04T23:53:47.760Z,99.90
2018-08-04T23:56:17.325Z,99.90
2018-08-04T23:58:46.882Z,99.90
